sensor_id;sensor_type;location;lat;lon;timestamp;P1;durP1;ratioP1;P2;durP2;ratioP2
75506;SDS011;64086;43.220;27.878;2022-11-20T00:01:47;10.98;;;6.63;;
75506;SDS011;64086;43.220;27.878;2022-11-20T00:04:12;10.40;;;6.97;;
75506;SDS011;64086;43.220;27.878;2022-11-20T00:06:38;12.23;;;7.43;;
75506;SDS011;64086;43.220;27.878;2022-11-20T00:09:03;11.88;;;6.00;;
75506;SDS011;64086;43.220;27.878;2022-11-20T00:11:31;11.98;;;6.78;;
75506;SDS011;64086;43.220;27.878;2022-11-20T00:13:58;14.32;;;6.70;;
75506;SDS011;64086;43.220;27.878;2022-11-20T00:16:26;13.45;;;7.07;;
75506;SDS011;64086;43.220;27.878;2022-11-20T00:18:52;9.88;;;5.88;;
75506;SDS011;64086;43.220;27.878;2022-11-20T00:21:21;11.65;;;6.40;;
75506;SDS011;64086;43.220;27.878;2022-11-20T00:23:48;12.77;;;6.30;;
75506;SDS011;64086;43.220;27.878;2022-11-20T00:26:14;12.07;;;6.45;;
75506;SDS011;64086;43.220;27.878;2022-11-20T00:28:41;12.43;;;6.10;;
75506;SDS011;64086;43.220;27.878;2022-11-20T00:31:11;11.68;;;7.30;;
75506;SDS011;64086;43.220;27.878;2022-11-20T00:33:38;12.88;;;7.68;;
75506;SDS011;64086;43.220;27.878;2022-11-20T00:36:04;13.93;;;6.82;;
75506;SDS011;64086;43.220;27.878;2022-11-20T00:38:32;11.00;;;6.47;;
75506;SDS011;64086;43.220;27.878;2022-11-20T00:40:58;9.60;;;5.75;;
75506;SDS011;64086;43.220;27.878;2022-11-20T00:43:25;9.70;;;6.20;;
75506;SDS011;64086;43.220;27.878;2022-11-20T00:45:55;8.90;;;5.88;;
75506;SDS011;64086;43.220;27.878;2022-11-20T00:48:41;7.78;;;5.40;;
75506;SDS011;64086;43.220;27.878;2022-11-20T00:51:06;9.95;;;5.78;;
75506;SDS011;64086;43.220;27.878;2022-11-20T00:53:32;10.38;;;5.43;;
75506;SDS011;64086;43.220;27.878;2022-11-20T00:58:25;13.30;;;5.82;;
75506;SDS011;64086;43.220;27.878;2022-11-20T01:00:59;12.77;;;5.55;;
75506;SDS011;64086;43.220;27.878;2022-11-20T01:03:45;8.40;;;5.05;;
75506;SDS011;64086;43.220;27.878;2022-11-20T01:06:13;10.10;;;5.10;;
75506;SDS011;64086;43.220;27.878;2022-11-20T01:08:50;10.27;;;5.40;;
75506;SDS011;64086;43.220;27.878;2022-11-20T01:11:17;9.60;;;5.65;;
75506;SDS011;64086;43.220;27.878;2022-11-20T01:13:46;11.50;;;5.47;;
75506;SDS011;64086;43.220;27.878;2022-11-20T01:16:14;10.60;;;5.43;;
75506;SDS011;64086;43.220;27.878;2022-11-20T01:18:41;9.55;;;5.15;;
75506;SDS011;64086;43.220;27.878;2022-11-20T01:21:12;9.25;;;5.10;;
75506;SDS011;64086;43.220;27.878;2022-11-20T01:23:43;10.50;;;5.18;;
75506;SDS011;64086;43.220;27.878;2022-11-20T01:26:10;12.90;;;5.43;;
75506;SDS011;64086;43.220;27.878;2022-11-20T01:28:40;10.02;;;5.80;;
75506;SDS011;64086;43.220;27.878;2022-11-20T01:31:19;10.70;;;6.00;;
75506;SDS011;64086;43.220;27.878;2022-11-20T01:33:46;7.38;;;5.15;;
75506;SDS011;64086;43.220;27.878;2022-11-20T01:36:12;10.55;;;5.80;;
75506;SDS011;64086;43.220;27.878;2022-11-20T01:38:38;11.38;;;6.50;;
75506;SDS011;64086;43.220;27.878;2022-11-20T01:41:04;7.75;;;5.63;;
75506;SDS011;64086;43.220;27.878;2022-11-20T01:43:30;10.65;;;6.05;;
75506;SDS011;64086;43.220;27.878;2022-11-20T01:49:04;9.23;;;5.32;;
75506;SDS011;64086;43.220;27.878;2022-11-20T01:54:45;11.68;;;5.63;;
75506;SDS011;64086;43.220;27.878;2022-11-20T01:57:13;9.98;;;5.60;;
75506;SDS011;64086;43.220;27.878;2022-11-20T01:59:41;9.23;;;5.35;;
75506;SDS011;64086;43.220;27.878;2022-11-20T02:02:10;9.80;;;5.30;;
75506;SDS011;64086;43.220;27.878;2022-11-20T02:04:35;11.95;;;5.32;;
75506;SDS011;64086;43.220;27.878;2022-11-20T02:07:02;12.18;;;6.22;;
75506;SDS011;64086;43.220;27.878;2022-11-20T02:09:30;8.30;;;5.20;;
75506;SDS011;64086;43.220;27.878;2022-11-20T02:11:55;11.18;;;5.80;;
75506;SDS011;64086;43.220;27.878;2022-11-20T02:14:21;10.50;;;5.82;;
75506;SDS011;64086;43.220;27.878;2022-11-20T02:16:50;7.88;;;5.40;;
75506;SDS011;64086;43.220;27.878;2022-11-20T02:19:37;8.18;;;5.15;;
75506;SDS011;64086;43.220;27.878;2022-11-20T02:22:02;11.75;;;5.38;;
75506;SDS011;64086;43.220;27.878;2022-11-20T02:24:45;10.32;;;6.15;;
75506;SDS011;64086;43.220;27.878;2022-11-20T02:27:14;10.68;;;5.78;;
75506;SDS011;64086;43.220;27.878;2022-11-20T02:29:42;10.55;;;6.13;;
75506;SDS011;64086;43.220;27.878;2022-11-20T02:32:24;9.57;;;5.60;;
75506;SDS011;64086;43.220;27.878;2022-11-20T02:34:54;10.02;;;5.55;;
75506;SDS011;64086;43.220;27.878;2022-11-20T02:37:20;9.85;;;5.13;;
75506;SDS011;64086;43.220;27.878;2022-11-20T02:39:46;7.80;;;5.30;;
75506;SDS011;64086;43.220;27.878;2022-11-20T02:42:13;9.98;;;5.60;;
75506;SDS011;64086;43.220;27.878;2022-11-20T02:44:38;8.55;;;5.50;;
75506;SDS011;64086;43.220;27.878;2022-11-20T02:47:04;12.55;;;5.55;;
75506;SDS011;64086;43.220;27.878;2022-11-20T02:49:30;10.40;;;6.00;;
75506;SDS011;64086;43.220;27.878;2022-11-20T02:51:55;7.65;;;5.32;;
75506;SDS011;64086;43.220;27.878;2022-11-20T02:54:20;6.93;;;5.43;;
75506;SDS011;64086;43.220;27.878;2022-11-20T02:56:46;10.15;;;5.50;;
75506;SDS011;64086;43.220;27.878;2022-11-20T02:59:11;12.82;;;5.30;;
75506;SDS011;64086;43.220;27.878;2022-11-20T03:01:37;11.90;;;5.95;;
75506;SDS011;64086;43.220;27.878;2022-11-20T03:04:02;8.50;;;5.35;;
75506;SDS011;64086;43.220;27.878;2022-11-20T03:06:28;9.02;;;5.32;;
75506;SDS011;64086;43.220;27.878;2022-11-20T03:08:53;10.15;;;5.65;;
75506;SDS011;64086;43.220;27.878;2022-11-20T03:11:19;10.45;;;5.45;;
75506;SDS011;64086;43.220;27.878;2022-11-20T03:13:44;9.90;;;5.70;;
75506;SDS011;64086;43.220;27.878;2022-11-20T03:16:14;10.20;;;5.75;;
75506;SDS011;64086;43.220;27.878;2022-11-20T03:18:44;9.85;;;6.18;;
75506;SDS011;64086;43.220;27.878;2022-11-20T03:21:10;11.48;;;5.07;;
75506;SDS011;64086;43.220;27.878;2022-11-20T03:23:36;9.77;;;5.10;;
75506;SDS011;64086;43.220;27.878;2022-11-20T03:26:19;10.30;;;5.40;;
75506;SDS011;64086;43.220;27.878;2022-11-20T03:28:47;9.38;;;5.63;;
75506;SDS011;64086;43.220;27.878;2022-11-20T03:31:18;10.27;;;5.28;;
75506;SDS011;64086;43.220;27.878;2022-11-20T03:33:45;10.23;;;5.40;;
75506;SDS011;64086;43.220;27.878;2022-11-20T03:36:12;12.13;;;5.00;;
75506;SDS011;64086;43.220;27.878;2022-11-20T03:38:38;11.38;;;5.20;;
75506;SDS011;64086;43.220;27.878;2022-11-20T03:41:06;9.98;;;5.28;;
75506;SDS011;64086;43.220;27.878;2022-11-20T03:43:32;8.48;;;5.30;;
75506;SDS011;64086;43.220;27.878;2022-11-20T03:45:58;10.25;;;5.28;;
75506;SDS011;64086;43.220;27.878;2022-11-20T03:48:24;14.63;;;5.88;;
75506;SDS011;64086;43.220;27.878;2022-11-20T03:50:49;9.43;;;4.97;;
75506;SDS011;64086;43.220;27.878;2022-11-20T03:53:16;11.30;;;4.68;;
75506;SDS011;64086;43.220;27.878;2022-11-20T03:55:41;7.25;;;4.65;;
75506;SDS011;64086;43.220;27.878;2022-11-20T03:58:07;9.10;;;4.32;;
75506;SDS011;64086;43.220;27.878;2022-11-20T04:00:32;9.50;;;6.47;;
75506;SDS011;64086;43.220;27.878;2022-11-20T04:02:58;9.57;;;5.55;;
75506;SDS011;64086;43.220;27.878;2022-11-20T04:05:24;10.05;;;4.95;;
75506;SDS011;64086;43.220;27.878;2022-11-20T04:07:50;10.75;;;5.57;;
75506;SDS011;64086;43.220;27.878;2022-11-20T04:10:15;9.65;;;4.50;;
75506;SDS011;64086;43.220;27.878;2022-11-20T04:12:41;10.70;;;4.30;;
75506;SDS011;64086;43.220;27.878;2022-11-20T04:15:06;10.45;;;4.18;;
75506;SDS011;64086;43.220;27.878;2022-11-20T04:17:32;6.68;;;4.20;;
75506;SDS011;64086;43.220;27.878;2022-11-20T04:19:57;7.78;;;4.55;;
75506;SDS011;64086;43.220;27.878;2022-11-20T04:22:23;9.40;;;4.60;;
75506;SDS011;64086;43.220;27.878;2022-11-20T04:24:48;6.60;;;3.90;;
75506;SDS011;64086;43.220;27.878;2022-11-20T04:27:14;10.20;;;3.72;;
75506;SDS011;64086;43.220;27.878;2022-11-20T04:29:39;9.25;;;3.75;;
75506;SDS011;64086;43.220;27.878;2022-11-20T04:32:05;10.35;;;3.85;;
75506;SDS011;64086;43.220;27.878;2022-11-20T04:34:30;9.45;;;4.10;;
75506;SDS011;64086;43.220;27.878;2022-11-20T04:36:56;6.53;;;3.85;;
75506;SDS011;64086;43.220;27.878;2022-11-20T04:39:21;6.90;;;3.72;;
75506;SDS011;64086;43.220;27.878;2022-11-20T04:41:47;8.60;;;3.75;;
75506;SDS011;64086;43.220;27.878;2022-11-20T04:44:12;7.50;;;4.25;;
75506;SDS011;64086;43.220;27.878;2022-11-20T04:46:38;10.25;;;4.20;;
75506;SDS011;64086;43.220;27.878;2022-11-20T04:49:05;10.43;;;3.88;;
75506;SDS011;64086;43.220;27.878;2022-11-20T04:51:31;10.38;;;4.10;;
75506;SDS011;64086;43.220;27.878;2022-11-20T04:53:56;11.07;;;4.30;;
75506;SDS011;64086;43.220;27.878;2022-11-20T04:56:22;10.52;;;4.45;;
75506;SDS011;64086;43.220;27.878;2022-11-20T04:58:47;8.68;;;4.15;;
75506;SDS011;64086;43.220;27.878;2022-11-20T05:01:14;8.82;;;4.00;;
75506;SDS011;64086;43.220;27.878;2022-11-20T05:03:41;6.50;;;3.08;;
75506;SDS011;64086;43.220;27.878;2022-11-20T05:06:08;11.00;;;3.92;;
75506;SDS011;64086;43.220;27.878;2022-11-20T05:08:34;9.23;;;3.47;;
75506;SDS011;64086;43.220;27.878;2022-11-20T05:11:01;12.40;;;5.00;;
75506;SDS011;64086;43.220;27.878;2022-11-20T05:13:27;9.52;;;3.92;;
75506;SDS011;64086;43.220;27.878;2022-11-20T05:15:52;9.73;;;3.70;;
75506;SDS011;64086;43.220;27.878;2022-11-20T05:18:18;9.23;;;3.88;;
75506;SDS011;64086;43.220;27.878;2022-11-20T05:20:43;10.85;;;3.65;;
75506;SDS011;64086;43.220;27.878;2022-11-20T05:23:08;11.52;;;3.50;;
75506;SDS011;64086;43.220;27.878;2022-11-20T05:25:34;9.57;;;3.92;;
75506;SDS011;64086;43.220;27.878;2022-11-20T05:27:59;10.63;;;3.83;;
75506;SDS011;64086;43.220;27.878;2022-11-20T05:30:25;9.52;;;3.80;;
75506;SDS011;64086;43.220;27.878;2022-11-20T05:32:50;9.57;;;3.75;;
75506;SDS011;64086;43.220;27.878;2022-11-20T05:35:15;9.57;;;3.55;;
75506;SDS011;64086;43.220;27.878;2022-11-20T05:37:41;9.32;;;3.83;;
75506;SDS011;64086;43.220;27.878;2022-11-20T05:40:06;9.82;;;3.80;;
75506;SDS011;64086;43.220;27.878;2022-11-20T05:42:32;9.60;;;3.35;;
75506;SDS011;64086;43.220;27.878;2022-11-20T05:44:58;10.30;;;3.22;;
75506;SDS011;64086;43.220;27.878;2022-11-20T05:47:25;9.13;;;3.20;;
75506;SDS011;64086;43.220;27.878;2022-11-20T05:49:56;9.82;;;3.50;;
75506;SDS011;64086;43.220;27.878;2022-11-20T05:52:21;9.18;;;3.10;;
75506;SDS011;64086;43.220;27.878;2022-11-20T05:54:47;12.20;;;3.88;;
75506;SDS011;64086;43.220;27.878;2022-11-20T05:57:12;10.30;;;3.30;;
75506;SDS011;64086;43.220;27.878;2022-11-20T05:59:37;10.52;;;3.80;;
75506;SDS011;64086;43.220;27.878;2022-11-20T06:02:03;9.82;;;3.67;;
75506;SDS011;64086;43.220;27.878;2022-11-20T06:04:28;8.77;;;3.42;;
75506;SDS011;64086;43.220;27.878;2022-11-20T06:06:54;10.15;;;3.50;;
75506;SDS011;64086;43.220;27.878;2022-11-20T06:09:19;10.20;;;3.53;;
75506;SDS011;64086;43.220;27.878;2022-11-20T06:11:45;8.73;;;3.28;;
75506;SDS011;64086;43.220;27.878;2022-11-20T06:14:10;7.55;;;2.92;;
75506;SDS011;64086;43.220;27.878;2022-11-20T06:16:36;9.55;;;3.33;;
75506;SDS011;64086;43.220;27.878;2022-11-20T06:19:01;8.63;;;3.20;;
75506;SDS011;64086;43.220;27.878;2022-11-20T06:21:26;9.25;;;3.30;;
75506;SDS011;64086;43.220;27.878;2022-11-20T06:23:52;6.78;;;3.13;;
75506;SDS011;64086;43.220;27.878;2022-11-20T06:26:22;8.90;;;3.08;;
75506;SDS011;64086;43.220;27.878;2022-11-20T06:28:49;14.35;;;3.63;;
75506;SDS011;64086;43.220;27.878;2022-11-20T06:31:16;10.02;;;3.40;;
75506;SDS011;64086;43.220;27.878;2022-11-20T06:33:43;10.80;;;3.92;;
75506;SDS011;64086;43.220;27.878;2022-11-20T06:36:09;10.45;;;3.38;;
75506;SDS011;64086;43.220;27.878;2022-11-20T06:38:35;8.27;;;2.95;;
75506;SDS011;64086;43.220;27.878;2022-11-20T06:41:01;13.43;;;3.90;;
75506;SDS011;64086;43.220;27.878;2022-11-20T06:43:28;9.00;;;3.05;;
75506;SDS011;64086;43.220;27.878;2022-11-20T06:45:54;9.70;;;3.47;;
75506;SDS011;64086;43.220;27.878;2022-11-20T06:48:21;11.63;;;3.50;;
75506;SDS011;64086;43.220;27.878;2022-11-20T06:50:47;11.65;;;3.97;;
75506;SDS011;64086;43.220;27.878;2022-11-20T06:53:13;9.65;;;3.72;;
75506;SDS011;64086;43.220;27.878;2022-11-20T06:55:41;11.73;;;4.00;;
75506;SDS011;64086;43.220;27.878;2022-11-20T06:58:08;13.32;;;3.75;;
75506;SDS011;64086;43.220;27.878;2022-11-20T07:00:34;10.60;;;4.53;;
75506;SDS011;64086;43.220;27.878;2022-11-20T07:03:02;10.07;;;4.53;;
75506;SDS011;64086;43.220;27.878;2022-11-20T07:05:28;11.27;;;4.50;;
75506;SDS011;64086;43.220;27.878;2022-11-20T07:07:55;11.23;;;4.63;;
75506;SDS011;64086;43.220;27.878;2022-11-20T07:10:21;11.90;;;4.88;;
75506;SDS011;64086;43.220;27.878;2022-11-20T07:12:52;11.63;;;4.60;;
75506;SDS011;64086;43.220;27.878;2022-11-20T07:15:19;10.98;;;4.25;;
75506;SDS011;64086;43.220;27.878;2022-11-20T07:17:45;11.45;;;3.28;;
75506;SDS011;64086;43.220;27.878;2022-11-20T07:20:11;8.98;;;3.95;;
75506;SDS011;64086;43.220;27.878;2022-11-20T07:22:37;10.55;;;3.67;;
75506;SDS011;64086;43.220;27.878;2022-11-20T07:25:02;10.38;;;3.30;;
75506;SDS011;64086;43.220;27.878;2022-11-20T07:27:28;11.00;;;3.42;;
75506;SDS011;64086;43.220;27.878;2022-11-20T07:29:54;14.23;;;4.00;;
75506;SDS011;64086;43.220;27.878;2022-11-20T07:32:20;9.52;;;3.50;;
75506;SDS011;64086;43.220;27.878;2022-11-20T07:34:45;10.48;;;3.40;;
75506;SDS011;64086;43.220;27.878;2022-11-20T07:37:11;12.27;;;3.60;;
75506;SDS011;64086;43.220;27.878;2022-11-20T07:39:36;8.18;;;3.50;;
75506;SDS011;64086;43.220;27.878;2022-11-20T07:42:02;11.75;;;3.38;;
75506;SDS011;64086;43.220;27.878;2022-11-20T07:44:27;7.40;;;3.20;;
75506;SDS011;64086;43.220;27.878;2022-11-20T07:46:53;13.20;;;3.75;;
75506;SDS011;64086;43.220;27.878;2022-11-20T07:49:18;6.95;;;3.28;;
75506;SDS011;64086;43.220;27.878;2022-11-20T07:51:44;9.88;;;3.70;;
75506;SDS011;64086;43.220;27.878;2022-11-20T07:54:09;15.20;;;4.43;;
75506;SDS011;64086;43.220;27.878;2022-11-20T07:56:35;9.50;;;3.35;;
75506;SDS011;64086;43.220;27.878;2022-11-20T07:59:00;12.95;;;3.83;;
75506;SDS011;64086;43.220;27.878;2022-11-20T08:01:25;14.30;;;4.22;;
75506;SDS011;64086;43.220;27.878;2022-11-20T08:03:51;10.82;;;3.45;;
75506;SDS011;64086;43.220;27.878;2022-11-20T08:06:16;10.25;;;4.15;;
75506;SDS011;64086;43.220;27.878;2022-11-20T08:08:43;8.50;;;3.35;;
75506;SDS011;64086;43.220;27.878;2022-11-20T08:11:09;10.80;;;4.18;;
75506;SDS011;64086;43.220;27.878;2022-11-20T08:13:53;11.50;;;3.92;;
75506;SDS011;64086;43.220;27.878;2022-11-20T08:16:36;12.82;;;3.80;;
75506;SDS011;64086;43.220;27.878;2022-11-20T08:19:02;12.65;;;3.25;;
75506;SDS011;64086;43.220;27.878;2022-11-20T08:21:28;12.75;;;3.65;;
75506;SDS011;64086;43.220;27.878;2022-11-20T08:23:53;14.43;;;4.18;;
75506;SDS011;64086;43.220;27.878;2022-11-20T08:26:20;8.25;;;3.35;;
75506;SDS011;64086;43.220;27.878;2022-11-20T08:28:46;11.00;;;3.42;;
75506;SDS011;64086;43.220;27.878;2022-11-20T08:31:11;9.68;;;3.58;;
75506;SDS011;64086;43.220;27.878;2022-11-20T08:33:37;9.15;;;3.42;;
75506;SDS011;64086;43.220;27.878;2022-11-20T08:36:02;9.70;;;3.78;;
75506;SDS011;64086;43.220;27.878;2022-11-20T08:38:29;9.98;;;4.15;;
75506;SDS011;64086;43.220;27.878;2022-11-20T08:40:58;13.32;;;4.13;;
75506;SDS011;64086;43.220;27.878;2022-11-20T08:43:44;12.90;;;3.70;;
75506;SDS011;64086;43.220;27.878;2022-11-20T08:46:09;11.93;;;3.67;;
75506;SDS011;64086;43.220;27.878;2022-11-20T08:48:35;7.10;;;3.15;;
75506;SDS011;64086;43.220;27.878;2022-11-20T08:51:00;10.43;;;3.67;;
75506;SDS011;64086;43.220;27.878;2022-11-20T08:53:26;7.50;;;3.75;;
75506;SDS011;64086;43.220;27.878;2022-11-20T08:55:52;9.55;;;4.15;;
75506;SDS011;64086;43.220;27.878;2022-11-20T08:58:17;12.10;;;4.25;;
75506;SDS011;64086;43.220;27.878;2022-11-20T09:00:43;7.78;;;3.45;;
75506;SDS011;64086;43.220;27.878;2022-11-20T09:03:08;8.23;;;3.63;;
75506;SDS011;64086;43.220;27.878;2022-11-20T09:05:34;9.73;;;3.47;;
75506;SDS011;64086;43.220;27.878;2022-11-20T09:07:59;11.63;;;3.83;;
75506;SDS011;64086;43.220;27.878;2022-11-20T09:10:28;12.15;;;4.28;;
75506;SDS011;64086;43.220;27.878;2022-11-20T09:12:54;13.45;;;4.18;;
75506;SDS011;64086;43.220;27.878;2022-11-20T09:15:23;12.73;;;3.88;;
75506;SDS011;64086;43.220;27.878;2022-11-20T09:17:59;11.45;;;4.20;;
75506;SDS011;64086;43.220;27.878;2022-11-20T09:20:26;12.25;;;4.30;;
75506;SDS011;64086;43.220;27.878;2022-11-20T09:22:53;12.05;;;3.58;;
75506;SDS011;64086;43.220;27.878;2022-11-20T09:25:19;14.27;;;3.95;;
75506;SDS011;64086;43.220;27.878;2022-11-20T09:27:44;8.68;;;3.35;;
75506;SDS011;64086;43.220;27.878;2022-11-20T09:30:11;9.38;;;3.70;;
75506;SDS011;64086;43.220;27.878;2022-11-20T09:32:41;10.35;;;3.95;;
75506;SDS011;64086;43.220;27.878;2022-11-20T09:35:07;10.10;;;3.38;;
75506;SDS011;64086;43.220;27.878;2022-11-20T09:37:33;13.93;;;3.67;;
75506;SDS011;64086;43.220;27.878;2022-11-20T09:39:59;11.32;;;3.67;;
75506;SDS011;64086;43.220;27.878;2022-11-20T09:42:27;13.65;;;4.07;;
75506;SDS011;64086;43.220;27.878;2022-11-20T09:45:30;11.25;;;3.83;;
75506;SDS011;64086;43.220;27.878;2022-11-20T09:56:10;13.57;;;4.53;;
75506;SDS011;64086;43.220;27.878;2022-11-20T10:03:54;10.65;;;3.70;;
75506;SDS011;64086;43.220;27.878;2022-11-20T10:11:28;11.07;;;3.60;;
75506;SDS011;64086;43.220;27.878;2022-11-20T10:30:02;12.73;;;4.15;;
75506;SDS011;64086;43.220;27.878;2022-11-20T10:32:37;12.48;;;4.53;;
75506;SDS011;64086;43.220;27.878;2022-11-20T10:37:41;15.32;;;4.30;;
75506;SDS011;64086;43.220;27.878;2022-11-20T10:42:59;13.75;;;4.00;;
75506;SDS011;64086;43.220;27.878;2022-11-20T10:50:36;12.15;;;4.32;;
75506;SDS011;64086;43.220;27.878;2022-11-20T10:56:24;11.32;;;4.50;;
75506;SDS011;64086;43.220;27.878;2022-11-20T11:01:24;11.13;;;4.30;;
75506;SDS011;64086;43.220;27.878;2022-11-20T11:03:52;11.27;;;3.90;;
75506;SDS011;64086;43.220;27.878;2022-11-20T11:09:13;14.35;;;4.35;;
75506;SDS011;64086;43.220;27.878;2022-11-20T11:11:41;11.88;;;4.47;;
75506;SDS011;64086;43.220;27.878;2022-11-20T11:14:08;10.27;;;4.03;;
75506;SDS011;64086;43.220;27.878;2022-11-20T11:16:35;9.45;;;3.95;;
75506;SDS011;64086;43.220;27.878;2022-11-20T11:19:04;10.05;;;3.70;;
75506;SDS011;64086;43.220;27.878;2022-11-20T11:21:38;13.15;;;3.67;;
75506;SDS011;64086;43.220;27.878;2022-11-20T11:24:22;11.07;;;4.13;;
75506;SDS011;64086;43.220;27.878;2022-11-20T11:27:01;9.40;;;3.70;;
75506;SDS011;64086;43.220;27.878;2022-11-20T11:29:31;10.27;;;4.57;;
75506;SDS011;64086;43.220;27.878;2022-11-20T11:32:14;8.35;;;3.95;;
75506;SDS011;64086;43.220;27.878;2022-11-20T11:34:42;13.82;;;3.85;;
75506;SDS011;64086;43.220;27.878;2022-11-20T11:37:13;15.27;;;4.32;;
75506;SDS011;64086;43.220;27.878;2022-11-20T11:39:42;13.70;;;4.20;;
75506;SDS011;64086;43.220;27.878;2022-11-20T11:42:11;15.50;;;4.50;;
75506;SDS011;64086;43.220;27.878;2022-11-20T11:44:43;12.43;;;4.35;;
75506;SDS011;64086;43.220;27.878;2022-11-20T11:47:32;16.20;;;4.20;;
75506;SDS011;64086;43.220;27.878;2022-11-20T11:52:39;11.93;;;4.45;;
75506;SDS011;64086;43.220;27.878;2022-11-20T11:55:07;13.63;;;4.10;;
75506;SDS011;64086;43.220;27.878;2022-11-20T12:00:16;10.95;;;4.32;;
75506;SDS011;64086;43.220;27.878;2022-11-20T12:05:20;12.13;;;4.30;;
75506;SDS011;64086;43.220;27.878;2022-11-20T12:13:15;14.82;;;4.25;;
75506;SDS011;64086;43.220;27.878;2022-11-20T12:15:46;14.23;;;4.80;;
75506;SDS011;64086;43.220;27.878;2022-11-20T12:18:20;16.45;;;4.90;;
75506;SDS011;64086;43.220;27.878;2022-11-20T12:39:49;11.93;;;4.00;;
75506;SDS011;64086;43.220;27.878;2022-11-20T12:45:19;17.77;;;4.97;;
75506;SDS011;64086;43.220;27.878;2022-11-20T12:47:53;14.95;;;4.53;;
75506;SDS011;64086;43.220;27.878;2022-11-20T12:55:56;17.73;;;5.22;;
75506;SDS011;64086;43.220;27.878;2022-11-20T13:01:23;18.88;;;4.70;;
75506;SDS011;64086;43.220;27.878;2022-11-20T13:04:33;16.25;;;5.43;;
75506;SDS011;64086;43.220;27.878;2022-11-20T13:06:55;17.13;;;5.30;;
75506;SDS011;64086;43.220;27.878;2022-11-20T13:09:22;16.67;;;4.90;;
75506;SDS011;64086;43.220;27.878;2022-11-20T13:17:05;18.85;;;5.45;;
75506;SDS011;64086;43.220;27.878;2022-11-20T13:19:40;17.52;;;4.78;;
75506;SDS011;64086;43.220;27.878;2022-11-20T13:22:07;15.90;;;5.40;;
75506;SDS011;64086;43.220;27.878;2022-11-20T13:24:33;15.38;;;5.13;;
75506;SDS011;64086;43.220;27.878;2022-11-20T13:26:59;17.48;;;4.45;;
75506;SDS011;64086;43.220;27.878;2022-11-20T13:29:25;14.50;;;4.65;;
75506;SDS011;64086;43.220;27.878;2022-11-20T13:31:51;16.83;;;4.95;;
75506;SDS011;64086;43.220;27.878;2022-11-20T13:34:23;20.00;;;5.03;;
75506;SDS011;64086;43.220;27.878;2022-11-20T13:36:51;17.52;;;5.18;;
75506;SDS011;64086;43.220;27.878;2022-11-20T13:39:29;21.73;;;5.50;;
75506;SDS011;64086;43.220;27.878;2022-11-20T13:41:57;19.25;;;4.75;;
75506;SDS011;64086;43.220;27.878;2022-11-20T13:44:53;14.07;;;4.80;;
75506;SDS011;64086;43.220;27.878;2022-11-20T13:47:26;18.35;;;5.35;;
75506;SDS011;64086;43.220;27.878;2022-11-20T13:49:54;16.40;;;4.82;;
75506;SDS011;64086;43.220;27.878;2022-11-20T13:52:30;17.98;;;5.68;;
75506;SDS011;64086;43.220;27.878;2022-11-20T13:55:41;20.75;;;5.63;;
75506;SDS011;64086;43.220;27.878;2022-11-20T13:58:24;24.10;;;6.00;;
75506;SDS011;64086;43.220;27.878;2022-11-20T14:03:41;21.75;;;6.40;;
75506;SDS011;64086;43.220;27.878;2022-11-20T14:06:20;20.65;;;5.38;;
75506;SDS011;64086;43.220;27.878;2022-11-20T14:08:49;20.48;;;5.53;;
75506;SDS011;64086;43.220;27.878;2022-11-20T14:11:19;16.20;;;5.10;;
75506;SDS011;64086;43.220;27.878;2022-11-20T14:16:46;20.88;;;5.80;;
75506;SDS011;64086;43.220;27.878;2022-11-20T14:21:51;20.80;;;5.60;;
75506;SDS011;64086;43.220;27.878;2022-11-20T14:24:18;15.95;;;5.00;;
75506;SDS011;64086;43.220;27.878;2022-11-20T14:26:45;18.02;;;5.10;;
75506;SDS011;64086;43.220;27.878;2022-11-20T14:29:16;21.92;;;5.63;;
75506;SDS011;64086;43.220;27.878;2022-11-20T14:31:43;23.73;;;5.35;;
75506;SDS011;64086;43.220;27.878;2022-11-20T14:34:12;18.65;;;7.65;;
75506;SDS011;64086;43.220;27.878;2022-11-20T14:36:42;20.20;;;5.32;;
75506;SDS011;64086;43.220;27.878;2022-11-20T14:39:12;17.00;;;5.25;;
75506;SDS011;64086;43.220;27.878;2022-11-20T14:41:51;18.30;;;5.20;;
75506;SDS011;64086;43.220;27.878;2022-11-20T14:44:17;19.75;;;5.13;;
75506;SDS011;64086;43.220;27.878;2022-11-20T14:46:45;23.90;;;4.93;;
75506;SDS011;64086;43.220;27.878;2022-11-20T14:49:10;24.92;;;6.38;;
75506;SDS011;64086;43.220;27.878;2022-11-20T14:51:37;25.30;;;5.50;;
75506;SDS011;64086;43.220;27.878;2022-11-20T14:54:10;16.08;;;5.30;;
75506;SDS011;64086;43.220;27.878;2022-11-20T14:56:58;14.25;;;4.95;;
75506;SDS011;64086;43.220;27.878;2022-11-20T14:59:32;16.23;;;5.57;;
75506;SDS011;64086;43.220;27.878;2022-11-20T15:02:06;18.67;;;5.40;;
75506;SDS011;64086;43.220;27.878;2022-11-20T15:04:44;19.35;;;5.63;;
75506;SDS011;64086;43.220;27.878;2022-11-20T15:07:23;16.83;;;5.88;;
75506;SDS011;64086;43.220;27.878;2022-11-20T15:10:06;18.92;;;7.30;;
75506;SDS011;64086;43.220;27.878;2022-11-20T15:12:34;23.77;;;5.85;;
75506;SDS011;64086;43.220;27.878;2022-11-20T15:15:03;20.30;;;5.80;;
75506;SDS011;64086;43.220;27.878;2022-11-20T15:17:30;18.45;;;5.90;;
75506;SDS011;64086;43.220;27.878;2022-11-20T15:19:57;18.58;;;6.22;;
75506;SDS011;64086;43.220;27.878;2022-11-20T15:22:22;21.75;;;6.20;;
75506;SDS011;64086;43.220;27.878;2022-11-20T15:24:48;44.03;;;28.85;;
75506;SDS011;64086;43.220;27.878;2022-11-20T15:27:13;26.30;;;12.75;;
75506;SDS011;64086;43.220;27.878;2022-11-20T15:29:38;24.75;;;11.15;;
75506;SDS011;64086;43.220;27.878;2022-11-20T15:32:04;23.42;;;10.13;;
75506;SDS011;64086;43.220;27.878;2022-11-20T15:34:30;23.70;;;9.35;;
75506;SDS011;64086;43.220;27.878;2022-11-20T15:36:55;27.08;;;9.23;;
75506;SDS011;64086;43.220;27.878;2022-11-20T15:39:21;24.85;;;8.35;;
75506;SDS011;64086;43.220;27.878;2022-11-20T15:41:46;22.65;;;8.82;;
75506;SDS011;64086;43.220;27.878;2022-11-20T15:44:12;23.42;;;8.27;;
75506;SDS011;64086;43.220;27.878;2022-11-20T15:46:38;24.95;;;8.55;;
75506;SDS011;64086;43.220;27.878;2022-11-20T15:49:09;23.60;;;8.10;;
75506;SDS011;64086;43.220;27.878;2022-11-20T15:51:37;25.67;;;9.10;;
75506;SDS011;64086;43.220;27.878;2022-11-20T15:56:36;29.30;;;10.30;;
75506;SDS011;64086;43.220;27.878;2022-11-20T15:59:02;28.83;;;10.25;;
75506;SDS011;64086;43.220;27.878;2022-11-20T16:01:28;27.23;;;10.85;;
75506;SDS011;64086;43.220;27.878;2022-11-20T16:03:53;25.75;;;9.32;;
75506;SDS011;64086;43.220;27.878;2022-11-20T16:06:18;27.50;;;9.55;;
75506;SDS011;64086;43.220;27.878;2022-11-20T16:08:44;26.13;;;10.52;;
75506;SDS011;64086;43.220;27.878;2022-11-20T16:11:13;28.15;;;10.55;;
75506;SDS011;64086;43.220;27.878;2022-11-20T16:13:40;23.88;;;9.27;;
75506;SDS011;64086;43.220;27.878;2022-11-20T16:16:28;23.27;;;11.05;;
75506;SDS011;64086;43.220;27.878;2022-11-20T16:18:56;24.45;;;10.55;;
75506;SDS011;64086;43.220;27.878;2022-11-20T16:21:22;25.08;;;10.02;;
75506;SDS011;64086;43.220;27.878;2022-11-20T16:23:59;26.30;;;8.88;;
75506;SDS011;64086;43.220;27.878;2022-11-20T16:26:25;20.15;;;7.00;;
75506;SDS011;64086;43.220;27.878;2022-11-20T16:28:51;23.10;;;7.43;;
75506;SDS011;64086;43.220;27.878;2022-11-20T16:31:17;25.15;;;6.80;;
75506;SDS011;64086;43.220;27.878;2022-11-20T16:33:48;27.08;;;6.85;;
75506;SDS011;64086;43.220;27.878;2022-11-20T16:36:17;25.80;;;9.05;;